Time;durP1;ratioP1;P1;durP2;ratioP2;P2;SDS_P1;SDS_P2;PMS_P1;PMS_P2;Temp;Humidity;BMP_temperature;BMP_pressure;BME280_temperature;BME280_humidity;BME280_pressure;Samples;Min_cycle;Max_cycle;Signal;HPM_P1;HPM_P2
2021/09/16 00:01:42;;;;;;;3.20;1.20;;;15.10;99.90;;;;;;4998719;28;20641;-52
2021/09/16 00:04:09;;;;;;;2.77;1.40;;;15.00;99.90;;;;;;5001184;28;20217;-52
2021/09/16 00:06:36;;;;;;;3.63;1.63;;;15.00;99.90;;;;;;5000464;28;20311;-52
2021/09/16 00:09:03;;;;;;;3.20;1.30;;;14.90;99.90;;;;;;5001624;28;20285;-51
2021/09/16 00:11:30;;;;;;;4.63;1.60;;;14.90;99.90;;;;;;4996853;28;20301;-52
2021/09/16 00:13:57;;;;;;;1.83;1.60;;;14.90;99.90;;;;;;5007782;28;20672;-52
2021/09/16 00:16:24;;;;;;;3.20;1.50;;;14.70;99.90;;;;;;4999431;28;20329;-52
2021/09/16 00:18:50;;;;;;;4.90;1.80;;;14.70;99.90;;;;;;4998499;28;20230;-52
2021/09/16 00:21:17;;;;;;;2.70;1.53;;;14.50;99.90;;;;;;5001567;28;20240;-52
2021/09/16 00:23:44;;;;;;;4.57;1.70;;;14.50;99.90;;;;;;5001339;28;20690;-52
2021/09/16 00:26:11;;;;;;;3.00;1.57;;;14.50;99.90;;;;;;4999599;28;20198;-51
2021/09/16 00:28:37;;;;;;;4.30;1.43;;;14.50;99.90;;;;;;5000160;28;20658;-52
2021/09/16 00:31:04;;;;;;;3.70;1.77;;;14.50;99.90;;;;;;5001240;28;20247;-52
2021/09/16 00:33:32;;;;;;;5.40;1.60;;;14.40;99.90;;;;;;5002190;28;20291;-52
2021/09/16 00:35:59;;;;;;;3.00;1.40;;;14.50;99.90;;;;;;5000639;28;20208;-51
2021/09/16 00:38:26;;;;;;;6.60;1.73;;;14.50;99.90;;;;;;4998808;28;20686;-52
2021/09/16 00:40:53;;;;;;;5.13;2.20;;;14.60;99.90;;;;;;5002546;28;20229;-52
2021/09/16 00:43:19;;;;;;;5.10;1.93;;;14.40;99.90;;;;;;5000802;28;20380;-52
2021/09/16 00:45:46;;;;;;;3.50;1.50;;;14.30;99.90;;;;;;5000841;28;20295;-51
2021/09/16 00:48:13;;;;;;;4.83;2.13;;;14.20;99.90;;;;;;4995501;28;20236;-51
2021/09/16 00:50:40;;;;;;;3.80;1.80;;;14.30;99.90;;;;;;5002583;28;20315;-52
2021/09/16 00:53:08;;;;;;;4.83;1.77;;;14.20;99.90;;;;;;5006769;28;20287;-51
2021/09/16 00:55:37;;;;;;;3.17;1.80;;;14.20;99.90;;;;;;4999226;28;20238;-51
2021/09/16 00:58:07;;;;;;;5.77;1.63;;;14.30;99.90;;;;;;5005293;28;20225;-52
2021/09/16 01:00:35;;;;;;;7.87;2.00;;;14.30;99.90;;;;;;5001140;28;20747;-52
2021/09/16 01:03:03;;;;;;;3.60;1.50;;;14.20;99.90;;;;;;5006393;28;20268;-52
2021/09/16 01:05:30;;;;;;;2.60;1.53;;;14.30;99.90;;;;;;5005374;28;20236;-52
2021/09/16 01:07:59;;;;;;;5.53;1.83;;;14.50;99.90;;;;;;5006805;28;20687;-52
2021/09/16 01:10:26;;;;;;;5.73;2.23;;;14.50;99.90;;;;;;5001579;28;20269;-52
2021/09/16 01:12:53;;;;;;;3.37;1.77;;;14.50;99.90;;;;;;5001889;28;20281;-52
2021/09/16 01:15:20;;;;;;;8.43;1.60;;;14.50;99.90;;;;;;5002135;28;20442;-52
2021/09/16 01:17:47;;;;;;;5.07;1.90;;;14.50;99.90;;;;;;5002715;28;20269;-52
2021/09/16 01:20:14;;;;;;;5.40;1.97;;;14.60;99.90;;;;;;5004922;28;20285;-52
2021/09/16 01:22:41;;;;;;;2.93;1.47;;;14.70;99.90;;;;;;5005870;28;20882;-52
2021/09/16 01:25:08;;;;;;;5.43;2.33;;;14.80;99.90;;;;;;5002694;28;20207;-52
2021/09/16 01:27:35;;;;;;;2.83;2.07;;;14.70;99.90;;;;;;5006022;28;20262;-52
2021/09/16 01:30:05;;;;;;;6.23;2.10;;;14.70;99.90;;;;;;5009761;28;20197;-52
2021/09/16 01:32:32;;;;;;;3.57;1.77;;;14.60;99.90;;;;;;5006433;28;20231;-52
2021/09/16 01:34:59;;;;;;;3.50;1.80;;;14.50;99.90;;;;;;5005368;28;20204;-52
2021/09/16 01:37:26;;;;;;;4.03;1.93;;;14.50;99.90;;;;;;5005480;28;20229;-52
2021/09/16 01:39:53;;;;;;;4.60;2.03;;;14.40;99.90;;;;;;5002269;28;20582;-52
2021/09/16 01:42:20;;;;;;;2.77;2.00;;;14.30;99.90;;;;;;5003977;28;20290;-52
2021/09/16 01:44:47;;;;;;;5.67;2.10;;;14.40;99.90;;;;;;4999018;28;20622;-52
2021/09/16 01:47:15;;;;;;;6.43;2.17;;;14.50;99.90;;;;;;4998776;28;20983;-52
2021/09/16 01:49:42;;;;;;;3.50;2.00;;;14.60;99.90;;;;;;5000840;28;20214;-52
2021/09/16 01:52:10;;;;;;;2.47;1.63;;;14.50;99.90;;;;;;5002457;28;20222;-52
2021/09/16 01:54:37;;;;;;;4.70;2.10;;;14.50;99.90;;;;;;5001217;28;20537;-52
2021/09/16 01:57:04;;;;;;;2.60;1.77;;;14.50;99.90;;;;;;5006634;28;20703;-51
2021/09/16 01:59:30;;;;;;;3.37;1.93;;;14.60;99.90;;;;;;5008093;28;20231;-52
2021/09/16 02:01:57;;;;;;;3.63;1.70;;;14.60;99.90;;;;;;5002929;28;20208;-52
2021/09/16 02:04:24;;;;;;;4.07;1.87;;;14.70;99.90;;;;;;5008476;28;20552;-51
2021/09/16 02:06:51;;;;;;;4.20;2.03;;;14.70;99.90;;;;;;5002881;28;20508;-52
2021/09/16 02:09:17;;;;;;;1.90;1.70;;;14.70;99.90;;;;;;5004282;28;20559;-52
2021/09/16 02:11:44;;;;;;;4.13;2.23;;;14.40;99.90;;;;;;5000981;28;20276;-52
2021/09/16 02:14:11;;;;;;;3.93;2.30;;;14.20;99.90;;;;;;5009889;28;20291;-52
2021/09/16 02:16:38;;;;;;;4.07;2.20;;;13.90;99.90;;;;;;5000524;28;20320;-52
2021/09/16 02:19:05;;;;;;;4.03;2.30;;;13.80;99.90;;;;;;5003551;28;20296;-51
2021/09/16 02:21:32;;;;;;;5.07;2.50;;;13.90;99.90;;;;;;5002211;28;20619;-52
2021/09/16 02:24:00;;;;;;;3.27;2.13;;;13.80;99.90;;;;;;4999714;28;20364;-52
2021/09/16 02:26:26;;;;;;;4.70;2.50;;;13.70;99.90;;;;;;4998121;28;21245;-52
2021/09/16 02:28:53;;;;;;;4.53;2.00;;;13.60;99.90;;;;;;5001773;28;20202;-51
2021/09/16 02:31:20;;;;;;;3.90;2.10;;;13.60;99.90;;;;;;5000245;28;20752;-52
2021/09/16 02:33:47;;;;;;;4.20;2.50;;;13.50;99.90;;;;;;5002745;28;20343;-51
2021/09/16 02:36:14;;;;;;;5.63;2.57;;;13.50;99.90;;;;;;5006917;28;20292;-52
2021/09/16 02:38:40;;;;;;;4.83;2.33;;;13.50;99.90;;;;;;5006202;28;20323;-51
2021/09/16 02:41:08;;;;;;;3.70;2.40;;;13.40;99.90;;;;;;5003758;28;20211;-52
2021/09/16 02:43:35;;;;;;;4.73;2.27;;;13.40;99.90;;;;;;5002971;28;20346;-52
2021/09/16 02:46:02;;;;;;;4.03;2.37;;;13.60;99.90;;;;;;5000285;28;20201;-52
2021/09/16 02:48:28;;;;;;;2.87;2.33;;;13.60;99.90;;;;;;4999532;28;20283;-52
2021/09/16 02:50:55;;;;;;;4.87;2.27;;;13.70;99.90;;;;;;5004039;28;20246;-52
2021/09/16 02:53:22;;;;;;;3.80;2.07;;;13.80;99.90;;;;;;5003653;28;20291;-52
2021/09/16 02:55:49;;;;;;;5.17;2.40;;;13.80;99.90;;;;;;5001323;28;20253;-52
2021/09/16 02:58:16;;;;;;;6.27;2.50;;;13.80;99.90;;;;;;4998758;28;20208;-52
2021/09/16 03:00:42;;;;;;;5.40;2.20;;;13.70;99.90;;;;;;5005600;28;20636;-51
2021/09/16 03:03:09;;;;;;;6.77;2.30;;;13.70;99.90;;;;;;5000884;28;20310;-52
2021/09/16 03:05:36;;;;;;;5.37;3.00;;;13.70;99.90;;;;;;4999659;28;20291;-51
2021/09/16 03:08:03;;;;;;;4.10;2.27;;;13.70;99.90;;;;;;5000705;28;20213;-52
2021/09/16 03:10:31;;;;;;;7.37;2.13;;;13.60;99.90;;;;;;5001795;28;20323;-52
2021/09/16 03:12:58;;;;;;;7.37;2.37;;;13.70;99.90;;;;;;4998974;28;20242;-51
2021/09/16 03:15:25;;;;;;;6.60;2.50;;;13.70;99.90;;;;;;5005472;28;20789;-52
2021/09/16 03:17:53;;;;;;;3.53;2.20;;;13.70;99.90;;;;;;5000288;28;20216;-52
2021/09/16 03:20:20;;;;;;;5.70;2.73;;;13.70;99.90;;;;;;5003132;28;20326;-52
2021/09/16 03:22:47;;;;;;;3.67;2.20;;;13.80;99.90;;;;;;4998362;28;20504;-52
2021/09/16 03:25:14;;;;;;;8.17;2.57;;;13.90;99.90;;;;;;5001012;28;20295;-52
2021/09/16 03:27:41;;;;;;;4.90;2.10;;;14.00;99.90;;;;;;5004313;28;20317;-52
2021/09/16 03:30:14;;;;;;;4.63;2.50;;;13.90;99.90;;;;;;5001396;28;20600;-52
2021/09/16 03:32:41;;;;;;;6.37;2.17;;;13.90;99.90;;;;;;4999114;28;20318;-52
2021/09/16 03:35:09;;;;;;;10.00;2.50;;;13.90;99.90;;;;;;4999005;28;20294;-52
2021/09/16 03:37:36;;;;;;;7.10;2.80;;;13.90;99.90;;;;;;5003042;28;20340;-52
2021/09/16 03:40:04;;;;;;;3.37;2.10;;;13.90;99.90;;;;;;5003475;28;20667;-52
2021/09/16 03:42:32;;;;;;;4.07;2.50;;;13.90;99.90;;;;;;5000163;28;20287;-52
2021/09/16 03:44:59;;;;;;;4.23;2.50;;;14.00;99.90;;;;;;5002344;28;21014;-52
2021/09/16 03:47:27;;;;;;;5.27;2.10;;;14.00;99.90;;;;;;5001086;28;20632;-52
2021/09/16 03:49:53;;;;;;;5.70;2.40;;;13.80;99.90;;;;;;5002825;28;20227;-52
2021/09/16 03:52:20;;;;;;;6.03;2.63;;;13.70;99.90;;;;;;4997489;28;20323;-51
2021/09/16 03:54:47;;;;;;;4.90;2.40;;;13.80;99.90;;;;;;5002043;28;20364;-52
2021/09/16 03:57:14;;;;;;;6.00;2.20;;;13.70;99.90;;;;;;5000162;28;20207;-52
2021/09/16 03:59:41;;;;;;;5.77;2.33;;;13.60;99.90;;;;;;5005149;28;20238;-51
2021/09/16 04:02:08;;;;;;;5.77;2.80;;;13.70;99.90;;;;;;4997771;28;20670;-51
2021/09/16 04:04:35;;;;;;;6.20;2.77;;;13.60;99.90;;;;;;5004812;28;20208;-51
2021/09/16 04:07:02;;;;;;;5.53;2.87;;;13.60;99.90;;;;;;5003150;28;20239;-52
2021/09/16 04:09:28;;;;;;;5.47;3.07;;;13.70;99.90;;;;;;5001936;28;20268;-52
2021/09/16 04:11:55;;;;;;;3.57;2.60;;;13.80;99.90;;;;;;5001004;28;20621;-51
2021/09/16 04:14:22;;;;;;;4.00;2.77;;;13.70;99.90;;;;;;5000715;28;20296;-52
2021/09/16 04:16:49;;;;;;;5.83;2.90;;;13.70;99.90;;;;;;5002233;28;20320;-51
2021/09/16 04:19:16;;;;;;;6.13;2.77;;;13.70;99.90;;;;;;4998660;28;20230;-51
2021/09/16 04:21:42;;;;;;;6.60;2.70;;;13.60;99.90;;;;;;5004057;28;20236;-52
2021/09/16 04:24:13;;;;;;;3.93;2.50;;;13.60;99.90;;;;;;5003513;28;20331;-51
2021/09/16 04:26:41;;;;;;;3.00;2.23;;;13.60;99.90;;;;;;5002591;28;20257;-52
2021/09/16 04:29:08;;;;;;;7.17;2.90;;;13.80;99.90;;;;;;5015553;28;20250;-51
2021/09/16 04:31:34;;;;;;;3.97;2.20;;;13.80;99.90;;;;;;5001258;28;20407;-52
2021/09/16 04:34:01;;;;;;;6.57;2.90;;;13.90;99.90;;;;;;5008358;28;20204;-52
2021/09/16 04:36:28;;;;;;;3.90;2.70;;;14.00;99.90;;;;;;5002893;28;20234;-52
2021/09/16 04:38:56;;;;;;;4.97;2.80;;;13.90;99.90;;;;;;5007920;28;20203;-52
2021/09/16 04:41:23;;;;;;;5.27;3.00;;;13.80;99.90;;;;;;5003806;28;20288;-51
2021/09/16 04:43:50;;;;;;;3.37;2.60;;;13.80;99.90;;;;;;5005228;28;20228;-52
2021/09/16 04:46:17;;;;;;;6.77;2.70;;;13.80;99.90;;;;;;5002099;28;20225;-52
2021/09/16 04:48:43;;;;;;;6.57;2.70;;;13.90;99.90;;;;;;5007069;28;20299;-52
2021/09/16 04:51:10;;;;;;;5.33;3.13;;;13.90;99.90;;;;;;5004809;28;20770;-52
2021/09/16 04:53:37;;;;;;;5.10;3.40;;;13.90;99.90;;;;;;5001342;28;20229;-52
2021/09/16 04:56:04;;;;;;;7.83;3.20;;;13.90;99.90;;;;;;5005884;28;20205;-51
2021/09/16 04:58:31;;;;;;;5.60;3.27;;;14.00;99.90;;;;;;5008873;28;20309;-51
2021/09/16 05:00:58;;;;;;;7.00;2.80;;;14.00;99.90;;;;;;5000532;28;20277;-52
2021/09/16 05:03:25;;;;;;;4.73;2.90;;;14.00;99.90;;;;;;5006929;28;20250;-52
2021/09/16 05:05:51;;;;;;;4.90;3.93;;;13.90;99.90;;;;;;5002159;28;20236;-52
2021/09/16 05:08:18;;;;;;;4.00;3.20;;;14.00;99.90;;;;;;5002156;28;20583;-52
2021/09/16 05:10:45;;;;;;;4.73;3.40;;;13.90;99.90;;;;;;5000906;28;20235;-52
2021/09/16 05:13:12;;;;;;;7.30;3.60;;;14.00;99.90;;;;;;5009335;28;20566;-52
2021/09/16 05:15:39;;;;;;;7.57;4.03;;;14.00;99.90;;;;;;5007128;28;20324;-51
2021/09/16 05:18:07;;;;;;;4.10;3.00;;;13.90;99.90;;;;;;4999152;28;20285;-52
2021/09/16 05:20:35;;;;;;;4.90;3.73;;;13.90;99.90;;;;;;5002461;28;20277;-52
2021/09/16 05:23:02;;;;;;;7.33;3.47;;;13.80;99.90;;;;;;5003702;28;20377;-51
2021/09/16 05:25:29;;;;;;;6.10;3.40;;;13.70;99.90;;;;;;5008194;28;20296;-51
2021/09/16 05:27:56;;;;;;;4.67;3.27;;;13.60;99.90;;;;;;4997594;28;20303;-52
2021/09/16 05:30:23;;;;;;;6.23;3.20;;;13.60;99.90;;;;;;5004972;28;20329;-52
2021/09/16 05:32:50;;;;;;;4.57;3.33;;;13.50;99.90;;;;;;4998368;28;20876;-51
2021/09/16 05:35:17;;;;;;;7.57;3.83;;;13.50;99.90;;;;;;5011513;28;20244;-52
2021/09/16 05:37:44;;;;;;;4.63;3.80;;;13.50;99.90;;;;;;4997413;28;20289;-51
2021/09/16 05:40:12;;;;;;;4.73;3.40;;;13.40;99.90;;;;;;4991036;28;20321;-52
2021/09/16 05:42:39;;;;;;;6.20;3.80;;;13.50;99.90;;;;;;4998069;28;20296;-51
2021/09/16 05:45:07;;;;;;;9.30;4.00;;;13.40;99.90;;;;;;5002227;28;20288;-52
2021/09/16 05:47:34;;;;;;;4.23;3.77;;;13.40;99.90;;;;;;4996212;28;20237;-51
2021/09/16 05:50:03;;;;;;;6.77;3.67;;;13.50;99.90;;;;;;5009935;28;20283;-52
2021/09/16 05:52:30;;;;;;;9.00;3.63;;;13.60;99.90;;;;;;5004002;28;20705;-51
2021/09/16 05:54:57;;;;;;;7.70;3.77;;;13.60;99.90;;;;;;5001364;28;20622;-51
2021/09/16 05:57:23;;;;;;;6.53;3.50;;;13.70;99.90;;;;;;5001323;28;20289;-52
2021/09/16 05:59:50;;;;;;;7.07;3.83;;;13.60;99.90;;;;;;5011046;28;20240;-51
2021/09/16 06:02:19;;;;;;;7.83;3.90;;;13.40;99.90;;;;;;5001496;28;20724;-51
2021/09/16 06:04:46;;;;;;;6.50;4.20;;;13.60;99.90;;;;;;4999041;28;20201;-52
2021/09/16 06:07:13;;;;;;;7.33;4.37;;;13.50;99.90;;;;;;4996544;28;20208;-52
2021/09/16 06:09:40;;;;;;;8.13;4.13;;;13.60;99.90;;;;;;4994279;28;20211;-51
2021/09/16 06:12:08;;;;;;;6.00;3.67;;;13.60;99.90;;;;;;4996977;28;20340;-52
2021/09/16 06:14:35;;;;;;;6.83;3.97;;;13.60;99.90;;;;;;4994813;28;20730;-51
2021/09/16 06:17:03;;;;;;;5.70;4.17;;;13.60;99.90;;;;;;4994142;28;20262;-52
2021/09/16 06:19:30;;;;;;;6.20;4.17;;;13.70;99.90;;;;;;4990050;28;20278;-52
2021/09/16 06:21:57;;;;;;;7.57;4.40;;;13.70;99.90;;;;;;4996582;28;20669;-52
2021/09/16 06:24:24;;;;;;;6.10;4.73;;;13.70;99.90;;;;;;4991939;28;20600;-51
2021/09/16 06:26:51;;;;;;;7.00;4.20;;;13.60;99.90;;;;;;4989988;28;20208;-52
2021/09/16 06:29:18;;;;;;;5.57;4.33;;;13.60;99.90;;;;;;4996649;28;20224;-51
2021/09/16 06:31:45;;;;;;;7.80;4.50;;;13.70;99.90;;;;;;4993919;28;20231;-52
2021/09/16 06:34:12;;;;;;;6.07;4.07;;;13.80;99.90;;;;;;4991532;28;20210;-52
2021/09/16 06:36:39;;;;;;;5.30;4.00;;;13.80;99.90;;;;;;4991821;28;20450;-52
2021/09/16 06:39:06;;;;;;;5.20;3.80;;;13.80;99.90;;;;;;4991997;28;20239;-52
2021/09/16 06:41:33;;;;;;;8.70;4.27;;;13.80;99.90;;;;;;5009647;28;20700;-51
2021/09/16 06:44:00;;;;;;;9.63;4.30;;;13.80;99.90;;;;;;4997574;28;20204;-52
2021/09/16 06:46:27;;;;;;;7.73;3.87;;;13.80;99.90;;;;;;4990447;28;20213;-51
2021/09/16 06:48:54;;;;;;;7.27;4.37;;;14.00;99.90;;;;;;4995268;28;20222;-50
2021/09/16 06:51:21;;;;;;;6.43;4.23;;;14.00;99.90;;;;;;4994708;28;22108;-52
2021/09/16 06:53:59;;;;;;;6.83;4.10;;;14.20;99.90;;;;;;4991815;28;20209;-52
2021/09/16 06:56:26;;;;;;;5.73;3.87;;;14.30;99.90;;;;;;4996368;28;20307;-52
2021/09/16 06:58:53;;;;;;;7.70;4.47;;;14.40;99.90;;;;;;5000658;28;20634;-50
2021/09/16 07:01:20;;;;;;;7.80;4.23;;;14.60;99.90;;;;;;4998109;28;20295;-52
2021/09/16 07:03:48;;;;;;;6.83;3.87;;;14.60;99.90;;;;;;4992950;28;20930;-52
2021/09/16 07:06:16;;;;;;;4.47;4.03;;;14.70;99.90;;;;;;4996391;28;20527;-51
2021/09/16 07:08:43;;;;;;;5.20;3.73;;;14.80;99.90;;;;;;4989219;28;20315;-50
2021/09/16 07:11:10;;;;;;;6.23;3.97;;;15.00;99.90;;;;;;4995442;28;20756;-51
2021/09/16 07:13:37;;;;;;;9.53;4.13;;;15.10;99.90;;;;;;5003406;28;20271;-51
2021/09/16 07:16:04;;;;;;;5.10;3.33;;;15.10;99.90;;;;;;4995751;28;20267;-53
2021/09/16 07:18:34;;;;;;;4.77;3.47;;;15.20;99.90;;;;;;4992056;28;20331;-51
2021/09/16 07:21:02;;;;;;;4.77;3.20;;;15.30;99.90;;;;;;5002896;28;20216;-51
2021/09/16 07:23:30;;;;;;;6.73;3.60;;;15.40;99.90;;;;;;5003353;28;20234;-51
2021/09/16 07:26:04;;;;;;;6.80;3.50;;;15.50;99.90;;;;;;4996389;28;20304;-51
2021/09/16 07:28:35;;;;;;;4.87;3.60;;;15.40;99.90;;;;;;4997623;28;20243;-51
2021/09/16 07:31:03;;;;;;;7.10;3.33;;;15.50;99.90;;;;;;5001695;28;20216;-51
2021/09/16 07:33:31;;;;;;;9.30;3.30;;;15.60;99.90;;;;;;4997041;28;20906;-51
2021/09/16 07:35:59;;;;;;;4.07;3.03;;;15.70;99.90;;;;;;4998580;28;20289;-51
2021/09/16 07:38:26;;;;;;;4.63;2.60;;;15.90;99.90;;;;;;4996089;28;20619;-51
2021/09/16 07:40:53;;;;;;;5.50;2.70;;;16.10;99.90;;;;;;5001815;28;20736;-51
2021/09/16 07:43:20;;;;;;;7.40;2.87;;;16.30;99.90;;;;;;5013485;28;20253;-50
2021/09/16 07:45:47;;;;;;;3.77;2.60;;;16.50;99.90;;;;;;4997946;28;20326;-50
2021/09/16 07:48:16;;;;;;;5.47;2.73;;;16.60;99.90;;;;;;4994692;28;20245;-50
2021/09/16 07:50:43;;;;;;;4.07;1.97;;;16.70;99.90;;;;;;4994144;28;20256;-50
2021/09/16 07:53:10;;;;;;;4.10;1.73;;;16.70;99.90;;;;;;5002225;28;20255;-50
2021/09/16 07:55:37;;;;;;;3.97;1.70;;;16.90;99.90;;;;;;4989370;28;20241;-50
2021/09/16 07:58:05;;;;;;;5.83;1.70;;;17.00;1.00;;;;;;4997373;28;20206;-52
2021/09/16 08:00:33;;;;;;;3.13;1.70;;;17.10;1.00;;;;;;4999687;28;20686;-51
2021/09/16 08:03:00;;;;;;;5.03;1.50;;;17.30;1.00;;;;;;5001652;28;20227;-51
2021/09/16 08:05:28;;;;;;;5.63;1.50;;;17.50;1.00;;;;;;4996078;28;20237;-51
2021/09/16 08:07:55;;;;;;;3.13;1.50;;;17.70;99.90;;;;;;4998221;28;20296;-51
2021/09/16 08:10:23;;;;;;;2.93;1.20;;;17.90;1.00;;;;;;4995285;28;20659;-51
2021/09/16 08:12:51;;;;;;;3.13;1.20;;;17.60;1.00;;;;;;4993740;28;20230;-52
2021/09/16 08:15:18;;;;;;;6.43;1.43;;;17.90;1.00;;;;;;5003098;28;20263;-51
2021/09/16 08:17:46;;;;;;;3.17;1.10;;;18.10;99.90;;;;;;4997598;28;20302;-51
2021/09/16 08:20:14;;;;;;;2.37;1.30;;;18.10;1.00;;;;;;5019285;28;20725;-51
2021/09/16 08:22:44;;;;;;;5.60;1.97;;;18.10;99.90;;;;;;4992636;28;20232;-51
2021/09/16 08:25:12;;;;;;;3.27;1.17;;;18.40;1.00;;;;;;4990984;28;20203;-52
2021/09/16 08:27:39;;;;;;;2.50;1.20;;;18.50;99.90;;;;;;5000029;28;20819;-51
2021/09/16 08:30:08;;;;;;;5.97;1.70;;;18.50;99.90;;;;;;4997253;28;20281;-52
2021/09/16 08:32:36;;;;;;;3.80;1.70;;;18.80;99.90;;;;;;5001960;28;20331;-52
2021/09/16 08:35:05;;;;;;;3.43;1.20;;;18.90;99.90;;;;;;4995078;28;20319;-51
2021/09/16 08:37:32;;;;;;;3.90;1.10;;;19.00;1.00;;;;;;5019508;28;20286;-52
2021/09/16 08:40:00;;;;;;;2.43;1.13;;;19.10;1.00;;;;;;4996838;28;20220;-51
2021/09/16 08:42:27;;;;;;;3.80;1.07;;;19.50;1.00;;;;;;5003445;28;20740;-52
2021/09/16 08:44:55;;;;;;;3.50;1.20;;;19.30;1.00;;;;;;4998714;28;20226;-51
2021/09/16 08:47:24;;;;;;;1.90;1.10;;;19.50;99.90;;;;;;5002094;28;20209;-51
2021/09/16 08:49:53;;;;;;;3.53;1.27;;;19.60;1.00;;;;;;4997506;28;20245;-51
2021/09/16 08:52:20;;;;;;;1.90;1.20;;;19.40;99.90;;;;;;5002510;28;20659;-51
2021/09/16 08:54:48;;;;;;;2.83;1.00;;;19.20;1.00;;;;;;4992271;28;20292;-51
2021/09/16 08:57:16;;;;;;;3.20;1.00;;;19.80;99.90;;;;;;4997403;28;20784;-51
2021/09/16 08:59:45;;;;;;;4.03;0.80;;;20.00;1.00;;;;;;4994968;28;20566;-52
2021/09/16 09:02:13;;;;;;;5.13;1.20;;;19.90;1.00;;;;;;4997091;28;20743;-51
2021/09/16 09:04:41;;;;;;;2.67;0.83;;;19.70;1.00;;;;;;5002799;28;20632;-52
2021/09/16 09:07:12;;;;;;;3.83;1.43;;;19.50;25.40;;;;;;4998028;28;20629;-51
2021/09/16 09:09:43;;;;;;;4.97;0.87;;;19.50;1.00;;;;;;4993207;28;20223;-52
2021/09/16 09:12:15;;;;;;;2.03;0.83;;;19.60;99.90;;;;;;5002732;28;20587;-52
2021/09/16 09:14:46;;;;;;;3.10;1.17;;;20.00;1.00;;;;;;4999491;28;20216;-51
2021/09/16 09:17:24;;;;;;;2.40;0.70;;;20.10;1.00;;;;;;4996520;28;20260;-51
2021/09/16 09:19:53;;;;;;;2.00;0.87;;;20.30;1.00;;;;;;4996337;28;20207;-52
2021/09/16 09:22:29;;;;;;;1.50;0.90;;;20.40;99.90;;;;;;5002239;28;20250;-52
2021/09/16 09:25:10;;;;;;;4.43;1.73;;;20.30;99.90;;;;;;5005166;28;20289;-52
2021/09/16 09:27:41;;;;;;;2.37;1.00;;;20.50;1.00;;;;;;5009771;28;20242;-52
2021/09/16 09:30:16;;;;;;;2.10;1.13;;;20.30;1.00;;;;;;5007022;28;20265;-52
2021/09/16 09:32:48;;;;;;;4.30;1.00;;;20.20;99.90;;;;;;5003844;28;20674;-52
2021/09/16 09:35:43;;;;;;;8.07;1.33;;;19.80;99.90;;;;;;5011121;28;20225;-52
2021/09/16 09:38:22;;;;;;;3.03;1.10;;;20.10;1.00;;;;;;4998398;28;20211;-52
2021/09/16 09:40:55;;;;;;;3.40;1.30;;;19.90;1.00;;;;;;4999481;28;20235;-52
2021/09/16 09:43:34;;;;;;;3.13;1.33;;;20.10;1.00;;;;;;5004443;28;20201;-51
2021/09/16 09:46:16;;;;;;;5.43;1.27;;;20.10;99.90;;;;;;5007379;28;21041;-52
2021/09/16 09:49:02;;;;;;;3.27;1.20;;;20.20;1.00;;;;;;5005296;28;20205;-52
2021/09/16 09:51:53;;;;;;;4.63;1.00;;;19.80;99.90;;;;;;5008919;28;20270;-52
2021/09/16 09:54:32;;;;;;;1.60;0.90;;;19.70;99.90;;;;;;5007554;28;20317;-52
2021/09/16 09:57:09;;;;;;;1.50;0.83;;;19.90;1.00;;;;;;5001465;28;20228;-52
2021/09/16 09:59:49;;;;;;;3.33;1.60;;;20.20;1.00;;;;;;4997957;28;20759;-52
2021/09/16 10:02:17;;;;;;;1.63;0.80;;;20.00;99.90;;;;;;5007022;28;20232;-52
2021/09/16 10:04:44;;;;;;;1.60;1.07;;;20.00;99.90;;;;;;5001213;28;20260;-52
2021/09/16 10:07:28;;;;;;;2.50;0.90;;;20.20;99.90;;;;;;5000420;28;20206;-52
2021/09/16 10:10:00;;;;;;;2.50;1.10;;;19.90;1.00;;;;;;5013366;28;20621;-52
2021/09/16 10:12:28;;;;;;;4.07;1.17;;;20.00;99.90;;;;;;5006133;28;20205;-52
2021/09/16 10:15:06;;;;;;;3.90;0.97;;;20.10;99.90;;;;;;4998736;28;20236;-52
2021/09/16 10:17:33;;;;;;;1.50;1.00;;;20.10;99.90;;;;;;4997715;28;20234;-52
2021/09/16 10:20:01;;;;;;;2.57;0.90;;;20.00;1.00;;;;;;4996710;28;20193;-52
2021/09/16 10:22:29;;;;;;;4.33;0.90;;;19.90;1.00;;;;;;4996593;28;20228;-52
2021/09/16 10:24:57;;;;;;;2.83;1.10;;;20.00;1.00;;;;;;4999021;28;20277;-52
2021/09/16 10:27:40;;;;;;;3.30;1.20;;;19.90;1.00;;;;;;5001756;28;20695;-51
2021/09/16 10:30:23;;;;;;;4.57;1.53;;;19.90;39.70;;;;;;5002062;28;20240;-52
2021/09/16 10:33:15;;;;;;;6.60;1.00;;;19.90;1.00;;;;;;5000872;28;20324;-51
2021/09/16 10:35:44;;;;;;;3.07;1.10;;;20.00;1.00;;;;;;5004030;28;20225;-52
2021/09/16 10:38:19;;;;;;;3.03;1.00;;;20.20;1.00;;;;;;5002621;28;20205;-52
2021/09/16 10:40:47;;;;;;;2.97;1.33;;;20.30;99.90;;;;;;5007776;28;20260;-52
2021/09/16 10:43:24;;;;;;;3.40;0.97;;;20.30;99.90;;;;;;5004135;28;20282;-51
2021/09/16 10:45:51;;;;;;;4.37;1.00;;;20.20;99.90;;;;;;5012160;28;20661;-52
2021/09/16 10:48:25;;;;;;;4.27;1.20;;;20.10;1.00;;;;;;5001235;28;20204;-52
2021/09/16 10:50:57;;;;;;;1.70;1.10;;;20.20;99.90;;;;;;5014598;28;20229;-51
2021/09/16 10:53:41;;;;;;;1.83;1.10;;;20.00;1.00;;;;;;4995641;28;20267;-52
2021/09/16 10:56:27;;;;;;;5.50;1.33;;;20.10;1.00;;;;;;5001737;28;20204;-52
2021/09/16 10:58:56;;;;;;;1.27;0.93;;;20.20;99.90;;;;;;4994879;28;20209;-52
2021/09/16 11:01:51;;;;;;;3.07;1.10;;;20.40;99.90;;;;;;5011888;28;20258;-52
2021/09/16 11:04:19;;;;;;;2.93;1.20;;;20.70;97.50;;;;;;4995467;28;20252;-52
2021/09/16 11:06:47;;;;;;;1.73;1.20;;;20.90;1.00;;;;;;4999961;28;20319;-52
2021/09/16 11:09:25;;;;;;;2.97;1.10;;;20.50;1.00;;;;;;5001674;28;20803;-52
2021/09/16 11:11:55;;;;;;;1.20;1.00;;;20.50;99.90;;;;;;5003624;28;20242;-52
2021/09/16 11:14:56;;;;;;;3.53;1.00;;;20.50;1.00;;;;;;5007798;28;20239;-52
2021/09/16 11:17:27;;;;;;;5.13;1.10;;;20.40;1.00;;;;;;5007956;28;20444;-52
2021/09/16 11:19:54;;;;;;;2.37;0.87;;;20.40;1.00;;;;;;5005030;28;20770;-51
2021/09/16 11:22:24;;;;;;;1.00;0.70;;;20.50;1.00;;;;;;5000560;28;20285;-52
2021/09/16 11:24:56;;;;;;;4.63;1.13;;;20.90;1.00;;;;;;5002505;28;20204;-52
2021/09/16 11:27:34;;;;;;;1.73;0.83;;;21.10;99.90;;;;;;4997131;28;20390;-52
2021/09/16 11:30:12;;;;;;;2.23;1.03;;;21.20;1.00;;;;;;5002719;28;20223;-52
2021/09/16 11:32:40;;;;;;;1.53;0.60;;;21.10;1.00;;;;;;4999773;28;20689;-52
2021/09/16 11:35:11;;;;;;;0.70;0.70;;;21.40;1.00;;;;;;5004075;28;20291;-52
2021/09/16 11:37:53;;;;;;;2.47;1.00;;;21.80;99.90;;;;;;5007016;28;20280;-51
2021/09/16 11:40:26;;;;;;;3.53;1.10;;;22.10;99.90;;;;;;5002918;28;20225;-52
2021/09/16 11:42:56;;;;;;;2.63;0.80;;;22.20;1.00;;;;;;5005422;28;20641;-52
2021/09/16 11:45:25;;;;;;;3.47;0.87;;;22.40;1.00;;;;;;5003772;28;20205;-52
2021/09/16 11:47:55;;;;;;;2.27;1.20;;;22.20;1.00;;;;;;5013965;28;20602;-52
2021/09/16 11:50:43;;;;;;;4.77;0.83;;;22.40;1.00;;;;;;5000939;28;20236;-52
2021/09/16 11:53:24;;;;;;;3.23;1.10;;;22.40;1.00;;;;;;5006011;28;20519;-51
2021/09/16 11:56:03;;;;;;;2.33;1.00;;;22.40;1.00;;;;;;5004396;28;20318;-52
2021/09/16 11:58:32;;;;;;;2.50;0.80;;;22.60;1.00;;;;;;5000480;28;20702;-51
2021/09/16 12:01:01;;;;;;;2.33;1.00;;;22.50;1.00;;;;;;5006233;28;20201;-51
2021/09/16 12:03:29;;;;;;;4.10;0.90;;;22.10;1.00;;;;;;5004931;28;20671;-51
2021/09/16 12:06:07;;;;;;;2.40;1.37;;;22.40;1.00;;;;;;5005040;28;20232;-51
2021/09/16 12:08:36;;;;;;;3.23;0.97;;;22.50;1.00;;;;;;5007209;28;20199;-51
2021/09/16 12:11:08;;;;;;;2.03;1.03;;;22.70;1.00;;;;;;5017303;28;20582;-51
2021/09/16 12:13:38;;;;;;;2.67;0.90;;;23.00;1.00;;;;;;5003206;28;20238;-51
2021/09/16 12:16:36;;;;;;;2.73;0.90;;;23.40;1.00;;;;;;5000325;28;20763;-51
2021/09/16 12:19:15;;;;;;;2.63;1.00;;;23.10;1.00;;;;;;5000155;28;20222;-51
2021/09/16 12:21:45;;;;;;;1.20;0.90;;;23.60;1.00;;;;;;4998868;28;20280;-51
2021/09/16 12:24:15;;;;;;;1.87;0.93;;;23.50;1.00;;;;;;5001368;28;20368;-51
2021/09/16 12:26:45;;;;;;;3.37;1.30;;;23.00;1.00;;;;;;5003320;28;20240;-51
2021/09/16 12:29:19;;;;;;;1.80;1.23;;;23.10;1.00;;;;;;5002344;28;21543;-51
2021/09/16 12:32:07;;;;;;;1.53;1.10;;;22.20;25.70;;;;;;4996812;28;20220;-51
2021/09/16 12:34:37;;;;;;;1.63;1.13;;;22.10;35.30;;;;;;4996642;28;20229;-51
2021/09/16 12:37:06;;;;;;;1.83;1.23;;;21.50;99.90;;;;;;4997426;28;20266;-51
2021/09/16 12:39:43;;;;;;;2.27;1.50;;;21.60;99.90;;;;;;4998095;28;20201;-51
2021/09/16 12:42:14;;;;;;;5.80;1.73;;;21.70;99.90;;;;;;5000420;28;20353;-51
2021/09/16 12:44:43;;;;;;;8.93;3.17;;;22.10;99.90;;;;;;5003490;28;20209;-52
2021/09/16 12:47:14;;;;;;;3.03;2.30;;;22.20;99.90;;;;;;4996312;28;20257;-51
2021/09/16 12:49:50;;;;;;;2.17;1.40;;;22.00;99.90;;;;;;5003278;28;20288;-51
2021/09/16 12:52:26;;;;;;;3.53;1.30;;;21.50;99.90;;;;;;5007536;28;20323;-52
2021/09/16 12:54:58;;;;;;;4.07;1.33;;;21.80;99.90;;;;;;5001809;28;20712;-51
2021/09/16 12:57:34;;;;;;;4.53;1.60;;;21.40;99.90;;;;;;4996579;28;20248;-53
2021/09/16 13:00:07;;;;;;;6.10;1.50;;;21.40;99.90;;;;;;5004380;28;20208;-51